createdAt,value
2019-06-07T00:00:00.900Z,10.4
2019-06-07T00:05:00.968Z,10.3
2019-06-07T00:15:00.977Z,10.4
2019-06-07T00:20:00.909Z,10.3
2019-06-07T00:25:01.032Z,10.7
2019-06-07T00:30:29.455Z,10.5
2019-06-07T00:35:00.978Z,10.6
2019-06-07T00:45:00.977Z,11.4
2019-06-07T00:50:00.913Z,11.1
2019-06-07T00:55:00.984Z,12.2
2019-06-07T01:00:00.924Z,12.2
2019-06-07T01:10:00.928Z,11.6
2019-06-07T01:15:00.999Z,11.6
2019-06-07T01:20:00.936Z,10.8
2019-06-07T01:25:00.998Z,11.5
2019-06-07T01:30:00.943Z,11.9
2019-06-07T01:40:01.072Z,12.6
2019-06-07T01:45:06.063Z,12.9
2019-06-07T01:50:00.945Z,12.4
2019-06-07T01:55:01.011Z,12.3
2019-06-07T02:00:00.952Z,12.5
2019-06-07T02:05:01.088Z,12.9
2019-06-07T02:10:00.975Z,13.6
2019-06-07T02:15:01.022Z,13.7
2019-06-07T02:20:00.957Z,13.9
2019-06-07T02:45:01.177Z,12.2
2019-06-07T02:50:01.030Z,13.5
2019-06-07T02:55:01.159Z,14.0
2019-06-07T03:00:16.882Z,14.8
2019-06-07T03:15:00.377Z,15.2
2019-06-07T03:20:00.359Z,15.1
2019-06-07T03:25:00.432Z,16.5
2019-06-07T03:30:00.372Z,16.3
2019-06-07T03:35:00.359Z,16.8
2019-06-07T03:40:00.372Z,16.7
2019-06-07T03:45:00.371Z,17.7
2019-06-07T03:50:00.371Z,17.1
2019-06-07T03:55:00.445Z,17.2
2019-06-07T04:00:00.385Z,17.6
2019-06-07T04:05:00.514Z,17.8
2019-06-07T04:10:00.390Z,17.7
2019-06-07T04:15:00.454Z,18.4
2019-06-07T04:20:00.391Z,19.2
2019-06-07T04:25:00.462Z,19.1
2019-06-07T04:30:07.017Z,20.0
2019-06-07T04:35:00.392Z,19.9
2019-06-07T04:40:00.393Z,19.6
2019-06-07T04:45:00.529Z,19.3
2019-06-07T04:50:00.403Z,19.7
2019-06-07T04:55:00.474Z,19.9
2019-06-07T05:00:12.598Z,19.6
2019-06-07T05:15:00.550Z,20.2
2019-06-07T05:25:05.635Z,19.8
2019-06-07T05:30:13.491Z,18.9
2019-06-07T05:35:00.571Z,18.1
2019-06-07T05:40:00.572Z,17.2
2019-06-07T05:45:00.645Z,16.6
2019-06-07T05:50:00.570Z,16.1
2019-06-07T06:00:00.591Z,15.6
2019-06-07T06:05:00.589Z,14.6
2019-06-07T06:10:00.549Z,13.8
2019-06-07T06:15:00.621Z,13.5
2019-06-07T06:20:00.772Z,12.6
2019-06-07T06:25:30.462Z,12.3
2019-06-07T06:30:00.537Z,12.5
2019-06-07T06:35:00.557Z,12.1
2019-06-07T06:40:00.572Z,10.9
2019-06-07T06:45:00.636Z,11.1
2019-06-07T06:50:00.576Z,10.7
2019-06-07T06:55:01.273Z,10.2
2019-06-07T07:00:00.577Z,9.8
2019-06-07T07:05:00.760Z,10.1
2019-06-07T07:10:00.601Z,10.2
2019-06-07T07:15:00.681Z,10.1
2019-06-07T07:20:00.582Z,9.8
2019-06-07T07:30:34.608Z,9.7
2019-06-07T07:45:01.031Z,8.2
2019-06-07T07:50:01.003Z,7.5
2019-06-07T07:55:01.015Z,7.3
2019-06-07T08:00:25.511Z,7.5
2019-06-07T08:25:04.079Z,8.0
2019-06-07T08:30:25.627Z,8.8
2019-06-07T08:35:05.769Z,8.7
2019-06-07T08:40:01.785Z,8.3
2019-06-07T08:45:03.516Z,7.8
2019-06-07T08:55:04.443Z,7.2
2019-06-07T09:00:07.017Z,7.2
2019-06-07T09:05:06.705Z,7.5
2019-06-07T09:10:08.253Z,8.3
2019-06-07T09:15:14.449Z,8.5
2019-06-07T09:20:06.282Z,9.2
2019-06-07T09:35:05.260Z,9.0
2019-06-07T09:40:10.181Z,8.2
2019-06-07T09:55:10.451Z,8.6
2019-06-07T10:00:02.522Z,7.8
2019-06-07T10:05:02.197Z,7.4
2019-06-07T10:25:01.975Z,5.0
2019-06-07T10:30:02.298Z,4.5
2019-06-07T10:35:00.827Z,4.9
2019-06-07T10:40:00.764Z,5.4
2019-06-07T10:45:02.310Z,5.6
2019-06-07T10:50:01.843Z,6.0
2019-06-07T10:55:00.831Z,6.4
2019-06-07T11:00:00.769Z,6.9
2019-06-07T11:05:00.832Z,7.5
2019-06-07T11:10:06.831Z,8.3
2019-06-07T11:15:00.785Z,9.0
2019-06-07T11:20:00.781Z,9.8
2019-06-07T11:25:00.943Z,9.9
2019-06-07T11:30:00.783Z,10.0
2019-06-07T11:35:00.850Z,9.6
2019-06-07T11:40:00.782Z,8.7
2019-06-07T11:45:00.856Z,7.9
2019-06-07T11:50:00.792Z,7.3
2019-06-07T11:55:00.922Z,6.3
2019-06-07T12:00:00.800Z,5.6
2019-06-07T12:05:00.868Z,5.7
2019-06-07T12:10:00.808Z,5.4
2019-06-07T12:15:00.874Z,4.7
2019-06-07T12:20:00.809Z,4.3
2019-06-07T12:25:00.934Z,4.1
2019-06-07T12:30:09.112Z,3.5
2019-06-07T12:35:00.877Z,3.4
2019-06-07T12:40:00.828Z,3.8
2019-06-07T12:45:00.974Z,3.9
2019-06-07T12:50:00.815Z,3.7
2019-06-07T12:55:00.901Z,3.6
2019-06-07T13:00:00.826Z,3.3
2019-06-07T13:05:04.448Z,2.9
2019-06-07T13:10:00.830Z,2.7
2019-06-07T13:15:00.895Z,2.7
2019-06-07T13:20:00.863Z,3.4
2019-06-07T13:25:00.930Z,3.7
2019-06-07T13:30:09.078Z,4.2
2019-06-07T13:35:00.902Z,4.9
2019-06-07T13:40:00.844Z,5.2
2019-06-07T13:45:00.911Z,5.1
2019-06-07T13:50:00.842Z,5.2
2019-06-07T13:55:02.215Z,4.9
2019-06-07T14:00:09.836Z,4.7
2019-06-07T14:05:01.000Z,4.9
2019-06-07T14:10:00.865Z,5.2
2019-06-07T14:15:00.922Z,5.1
2019-06-07T14:20:00.860Z,5.4
2019-06-07T14:30:00.937Z,5.0
2019-06-07T14:35:00.927Z,4.8
2019-06-07T14:45:06.444Z,5.0
2019-06-07T14:50:00.880Z,4.9
2019-06-07T14:55:01.008Z,4.7
2019-06-07T15:00:10.362Z,4.7
2019-06-07T15:05:00.947Z,4.3
2019-06-07T15:10:00.884Z,3.8
2019-06-07T15:15:00.954Z,3.5
2019-06-07T15:20:00.887Z,3.8
2019-06-07T15:25:01.067Z,3.4
2019-06-07T15:30:09.426Z,3.4
2019-06-07T15:35:01.016Z,4.0
2019-06-07T15:40:05.904Z,4.5
2019-06-07T15:45:00.966Z,4.4
2019-06-07T15:50:00.901Z,4.6
2019-06-07T15:55:01.031Z,4.9
2019-06-07T16:00:00.931Z,4.5
2019-06-07T16:05:00.980Z,4.1
2019-06-07T16:10:00.912Z,4.0
2019-06-07T16:15:00.978Z,4.0
2019-06-07T16:20:00.916Z,3.9
2019-06-07T16:25:01.057Z,4.6
2019-06-07T16:30:08.732Z,5.4
2019-06-07T16:35:01.019Z,6.0
2019-06-07T16:40:00.955Z,6.6
2019-06-07T16:45:00.986Z,6.9
2019-06-07T16:50:00.929Z,6.7
2019-06-07T16:55:00.928Z,6.5
2019-06-07T17:00:00.931Z,6.8
2019-06-07T17:05:01.071Z,7.2
2019-06-07T17:10:00.939Z,7.8
2019-06-07T17:15:00.929Z,8.4
2019-06-07T17:20:00.944Z,8.5
2019-06-07T17:25:01.015Z,8.4
2019-06-07T17:30:00.935Z,8.9
2019-06-07T17:35:01.075Z,9.1
2019-06-07T17:40:00.947Z,9.2
2019-06-07T17:45:01.020Z,10.1
2019-06-07T17:50:00.960Z,10.7
2019-06-07T17:55:01.021Z,10.5
2019-06-07T18:00:27.007Z,10.7
2019-06-07T18:05:01.042Z,11.2
2019-06-07T18:15:01.032Z,11.2
2019-06-07T18:25:01.042Z,10.6
2019-06-07T18:30:10.755Z,10.3
2019-06-07T18:35:01.110Z,9.8
2019-06-07T18:40:00.982Z,9.3
2019-06-07T18:45:01.063Z,8.8
2019-06-07T18:50:00.981Z,9.0
2019-06-07T18:55:01.050Z,8.9
2019-06-07T19:00:00.989Z,8.8
2019-06-07T19:05:01.120Z,9.6
2019-06-07T19:10:05.989Z,10.4
2019-06-07T19:15:01.074Z,10.8
2019-06-07T19:20:00.998Z,11.1
2019-06-07T19:25:01.064Z,11.2
2019-06-07T19:30:01.110Z,10.8
2019-06-07T19:35:01.627Z,10.9
2019-06-07T19:40:02.739Z,11.3
2019-06-07T19:45:26.887Z,11.9
2019-06-07T19:50:01.028Z,12.6
2019-06-07T19:55:05.754Z,13.2
2019-06-07T20:00:02.618Z,12.7
2019-06-07T20:10:01.092Z,12.1
2019-06-07T20:15:23.132Z,11.4
2019-06-07T20:20:00.986Z,11.2
2019-06-07T20:25:01.100Z,11.0
2019-06-07T20:30:02.116Z,10.0
2019-06-07T20:35:01.632Z,8.9
2019-06-07T20:40:12.583Z,8.6
2019-06-07T20:45:02.079Z,8.2
2019-06-07T20:50:02.372Z,8.9
2019-06-07T20:55:01.119Z,9.5
2019-06-07T21:00:10.325Z,10.4
2019-06-07T21:05:01.236Z,11.4
2019-06-07T21:10:01.729Z,12.2
2019-06-07T21:15:06.208Z,13.0
2019-06-07T21:20:02.792Z,14.9
2019-06-07T21:25:01.112Z,18.0
2019-06-07T21:30:01.154Z,19.4
2019-06-07T21:35:01.827Z,21.6
2019-06-07T21:40:01.789Z,23.0
2019-06-07T21:45:03.427Z,23.5
2019-06-07T21:50:02.521Z,22.8
2019-06-07T21:55:01.509Z,24.3
2019-06-07T22:00:01.068Z,24.2
2019-06-07T22:05:01.133Z,25.4
2019-06-07T22:10:01.102Z,24.6
2019-06-07T22:15:01.239Z,24.0
2019-06-07T22:20:01.103Z,23.2
2019-06-07T22:25:06.901Z,22.9
2019-06-07T22:30:06.208Z,21.7
2019-06-07T22:40:06.330Z,22.8
2019-06-07T22:45:06.153Z,22.6
2019-06-07T22:50:01.053Z,22.3
2019-06-07T22:55:07.575Z,21.4
2019-06-07T23:00:09.180Z,21.6
2019-06-07T23:05:04.664Z,20.8
2019-06-07T23:10:01.106Z,20.7
2019-06-07T23:15:01.229Z,20.4
2019-06-07T23:20:01.125Z,20.2
2019-06-07T23:25:01.172Z,19.6
2019-06-07T23:30:08.064Z,18.7
2019-06-07T23:35:01.183Z,16.8
2019-06-07T23:40:01.089Z,15.6
2019-06-07T23:45:01.227Z,15.0
2019-06-07T23:50:06.111Z,14.6
2019-06-07T23:55:06.149Z,14.4
